sensor_id;sensor_type;location;lat;lon;timestamp;pressure;altitude;pressure_sealevel;temperature
63158;BMP280;49381;49.338;8.794;2023-02-01T00:00:24;100921.75;;;6.53
63158;BMP280;49381;49.338;8.794;2023-02-01T00:02:24;100930.25;;;6.57
63158;BMP280;49381;49.338;8.794;2023-02-01T00:04:27;100938.72;;;6.59
63158;BMP280;49381;49.338;8.794;2023-02-01T00:06:27;100937.09;;;6.61
63158;BMP280;49381;49.338;8.794;2023-02-01T00:08:32;100942.13;;;6.35
63158;BMP280;49381;49.338;8.794;2023-02-01T00:10:32;100934.16;;;6.48
63158;BMP280;49381;49.338;8.794;2023-02-01T00:12:33;100931.53;;;6.45
63158;BMP280;49381;49.338;8.794;2023-02-01T00:14:35;100929.97;;;6.48
63158;BMP280;49381;49.338;8.794;2023-02-01T00:16:37;100918.56;;;6.33
63158;BMP280;49381;49.338;8.794;2023-02-01T00:18:38;100916.34;;;6.42
63158;BMP280;49381;49.338;8.794;2023-02-01T00:20:38;100907.16;;;6.44
63158;BMP280;49381;49.338;8.794;2023-02-01T00:22:39;100911.50;;;6.48
63158;BMP280;49381;49.338;8.794;2023-02-01T00:24:48;100915.41;;;6.40
63158;BMP280;49381;49.338;8.794;2023-02-01T00:26:51;100894.53;;;6.42
63158;BMP280;49381;49.338;8.794;2023-02-01T00:28:52;100899.94;;;6.54
63158;BMP280;49381;49.338;8.794;2023-02-01T00:31:05;100891.53;;;6.53
63158;BMP280;49381;49.338;8.794;2023-02-01T00:33:13;100880.09;;;6.37
63158;BMP280;49381;49.338;8.794;2023-02-01T00:35:15;100893.75;;;6.45
63158;BMP280;49381;49.338;8.794;2023-02-01T00:37:30;100882.69;;;6.40
63158;BMP280;49381;49.338;8.794;2023-02-01T00:39:32;100899.81;;;6.25
63158;BMP280;49381;49.338;8.794;2023-02-01T00:41:33;100888.34;;;6.33
63158;BMP280;49381;49.338;8.794;2023-02-01T00:43:36;100883.47;;;6.37
63158;BMP280;49381;49.338;8.794;2023-02-01T00:45:39;100882.69;;;6.40
63158;BMP280;49381;49.338;8.794;2023-02-01T00:48:02;100881.16;;;6.45
63158;BMP280;49381;49.338;8.794;2023-02-01T00:50:10;100883.88;;;6.51
63158;BMP280;49381;49.338;8.794;2023-02-01T00:52:11;100887.19;;;6.50
63158;BMP280;49381;49.338;8.794;2023-02-01T00:54:13;100879.44;;;6.42
63158;BMP280;49381;49.338;8.794;2023-02-01T00:56:17;100888.53;;;6.39
63158;BMP280;49381;49.338;8.794;2023-02-01T00:58:20;100885.47;;;6.47
63158;BMP280;49381;49.338;8.794;2023-02-01T01:00:22;100897.41;;;6.28
63158;BMP280;49381;49.338;8.794;2023-02-01T01:02:31;100884.47;;;6.42
63158;BMP280;49381;49.338;8.794;2023-02-01T01:04:37;100889.53;;;6.44
63158;BMP280;49381;49.338;8.794;2023-02-01T01:06:44;100879.84;;;6.29
63158;BMP280;49381;49.338;8.794;2023-02-01T01:08:46;100886.34;;;6.23
63158;BMP280;49381;49.338;8.794;2023-02-01T01:10:53;100885.03;;;6.34
63158;BMP280;49381;49.338;8.794;2023-02-01T01:12:55;100880.31;;;6.44
63158;BMP280;49381;49.338;8.794;2023-02-01T01:15:10;100872.91;;;6.49
63158;BMP280;49381;49.338;8.794;2023-02-01T01:17:10;100872.56;;;6.38
63158;BMP280;49381;49.338;8.794;2023-02-01T01:19:13;100880.13;;;6.38
63158;BMP280;49381;49.338;8.794;2023-02-01T01:21:19;100875.97;;;6.40
63158;BMP280;49381;49.338;8.794;2023-02-01T01:23:19;100875.41;;;6.49
63158;BMP280;49381;49.338;8.794;2023-02-01T01:25:20;100889.84;;;6.54
63158;BMP280;49381;49.338;8.794;2023-02-01T01:27:20;100901.75;;;6.58
63158;BMP280;49381;49.338;8.794;2023-02-01T01:29:27;100896.53;;;6.52
63158;BMP280;49381;49.338;8.794;2023-02-01T01:31:28;100902.50;;;6.55
63158;BMP280;49381;49.338;8.794;2023-02-01T01:33:29;100892.94;;;6.46
63158;BMP280;49381;49.338;8.794;2023-02-01T01:35:32;100898.97;;;6.51
63158;BMP280;49381;49.338;8.794;2023-02-01T01:37:37;100890.63;;;6.52
63158;BMP280;49381;49.338;8.794;2023-02-01T01:39:41;100895.56;;;6.49
63158;BMP280;49381;49.338;8.794;2023-02-01T01:41:41;100892.34;;;6.52
63158;BMP280;49381;49.338;8.794;2023-02-01T01:43:51;100894.03;;;6.53
63158;BMP280;49381;49.338;8.794;2023-02-01T01:45:52;100888.72;;;6.45
63158;BMP280;49381;49.338;8.794;2023-02-01T01:47:55;100886.91;;;6.41
63158;BMP280;49381;49.338;8.794;2023-02-01T01:49:56;100892.19;;;6.48
63158;BMP280;49381;49.338;8.794;2023-02-01T01:52:00;100889.69;;;6.48
63158;BMP280;49381;49.338;8.794;2023-02-01T01:54:08;100884.69;;;6.50
63158;BMP280;49381;49.338;8.794;2023-02-01T01:56:11;100874.84;;;6.31
63158;BMP280;49381;49.338;8.794;2023-02-01T01:58:14;100880.56;;;6.52
63158;BMP280;49381;49.338;8.794;2023-02-01T02:00:21;100871.34;;;6.52
63158;BMP280;49381;49.338;8.794;2023-02-01T02:02:29;100870.69;;;6.59
63158;BMP280;49381;49.338;8.794;2023-02-01T02:04:30;100864.19;;;6.65
63158;BMP280;49381;49.338;8.794;2023-02-01T02:06:41;100867.22;;;6.55
63158;BMP280;49381;49.338;8.794;2023-02-01T02:08:42;100865.91;;;6.66
63158;BMP280;49381;49.338;8.794;2023-02-01T02:10:44;100870.38;;;6.49
63158;BMP280;49381;49.338;8.794;2023-02-01T02:12:47;100867.44;;;6.61
63158;BMP280;49381;49.338;8.794;2023-02-01T02:14:48;100861.47;;;6.59
63158;BMP280;49381;49.338;8.794;2023-02-01T02:16:57;100862.88;;;6.50
63158;BMP280;49381;49.338;8.794;2023-02-01T02:19:17;100860.59;;;6.57
63158;BMP280;49381;49.338;8.794;2023-02-01T02:21:37;100858.66;;;6.49
63158;BMP280;49381;49.338;8.794;2023-02-01T02:24:13;100864.72;;;6.55
63158;BMP280;49381;49.338;8.794;2023-02-01T02:26:38;100858.69;;;6.51
63158;BMP280;49381;49.338;8.794;2023-02-01T02:31:40;100860.69;;;6.34
63158;BMP280;49381;49.338;8.794;2023-02-01T02:33:58;100862.19;;;6.28
63158;BMP280;49381;49.338;8.794;2023-02-01T02:36:07;100867.81;;;6.21
63158;BMP280;49381;49.338;8.794;2023-02-01T02:38:15;100864.38;;;6.18
63158;BMP280;49381;49.338;8.794;2023-02-01T02:40:22;100862.38;;;6.34
63158;BMP280;49381;49.338;8.794;2023-02-01T02:42:29;100861.06;;;6.20
63158;BMP280;49381;49.338;8.794;2023-02-01T02:44:37;100851.53;;;6.10
63158;BMP280;49381;49.338;8.794;2023-02-01T02:46:46;100857.97;;;6.27
63158;BMP280;49381;49.338;8.794;2023-02-01T02:48:52;100850.66;;;6.36
63158;BMP280;49381;49.338;8.794;2023-02-01T02:51:01;100845.72;;;6.39
63158;BMP280;49381;49.338;8.794;2023-02-01T02:53:10;100848.97;;;6.35
63158;BMP280;49381;49.338;8.794;2023-02-01T02:55:13;100839.81;;;6.37
63158;BMP280;49381;49.338;8.794;2023-02-01T02:57:19;100814.81;;;6.43
63158;BMP280;49381;49.338;8.794;2023-02-01T02:59:22;100815.78;;;6.48
63158;BMP280;49381;49.338;8.794;2023-02-01T03:01:24;100818.22;;;6.45
63158;BMP280;49381;49.338;8.794;2023-02-01T03:03:25;100816.88;;;6.28
63158;BMP280;49381;49.338;8.794;2023-02-01T03:05:32;100812.31;;;6.44
63158;BMP280;49381;49.338;8.794;2023-02-01T03:08:04;100826.31;;;6.35
63158;BMP280;49381;49.338;8.794;2023-02-01T03:10:09;100818.22;;;6.45
63158;BMP280;49381;49.338;8.794;2023-02-01T03:12:13;100825.06;;;6.49
63158;BMP280;49381;49.338;8.794;2023-02-01T03:14:24;100822.75;;;6.56
63158;BMP280;49381;49.338;8.794;2023-02-01T03:16:31;100827.06;;;6.60
63158;BMP280;49381;49.338;8.794;2023-02-01T03:18:36;100820.91;;;6.51
63158;BMP280;49381;49.338;8.794;2023-02-01T03:20:40;100822.41;;;6.44
63158;BMP280;49381;49.338;8.794;2023-02-01T03:22:46;100819.47;;;6.58
63158;BMP280;49381;49.338;8.794;2023-02-01T03:24:52;100818.03;;;6.39
63158;BMP280;49381;49.338;8.794;2023-02-01T03:27:01;100821.09;;;6.56
63158;BMP280;49381;49.338;8.794;2023-02-01T03:29:06;100822.75;;;6.56
63158;BMP280;49381;49.338;8.794;2023-02-01T03:31:08;100830.44;;;6.60
63158;BMP280;49381;49.338;8.794;2023-02-01T03:33:11;100834.44;;;6.54
63158;BMP280;49381;49.338;8.794;2023-02-01T03:35:16;100825.06;;;6.49
63158;BMP280;49381;49.338;8.794;2023-02-01T03:37:22;100827.16;;;6.35
63158;BMP280;49381;49.338;8.794;2023-02-01T03:39:27;100826.91;;;6.54
63158;BMP280;49381;49.338;8.794;2023-02-01T03:41:37;100835.78;;;6.42
63158;BMP280;49381;49.338;8.794;2023-02-01T03:43:44;100834.56;;;6.31
63158;BMP280;49381;49.338;8.794;2023-02-01T03:45:52;100823.44;;;6.51
63158;BMP280;49381;49.338;8.794;2023-02-01T03:47:57;100824.38;;;6.54
63158;BMP280;49381;49.338;8.794;2023-02-01T03:50:01;100821.22;;;6.61
63158;BMP280;49381;49.338;8.794;2023-02-01T03:52:05;100830.53;;;6.63
63158;BMP280;49381;49.338;8.794;2023-02-01T03:54:12;100830.66;;;6.66
63158;BMP280;49381;49.338;8.794;2023-02-01T03:56:15;100837.53;;;6.72
63158;BMP280;49381;49.338;8.794;2023-02-01T03:58:19;100828.28;;;6.72
63158;BMP280;49381;49.338;8.794;2023-02-01T04:00:22;100829.28;;;6.77
63158;BMP280;49381;49.338;8.794;2023-02-01T04:02:23;100835.31;;;6.82
63158;BMP280;49381;49.338;8.794;2023-02-01T04:04:25;100841.72;;;6.71
63158;BMP280;49381;49.338;8.794;2023-02-01T04:06:26;100837.22;;;6.61
63158;BMP280;49381;49.338;8.794;2023-02-01T04:08:26;100844.78;;;6.35
63158;BMP280;49381;49.338;8.794;2023-02-01T04:10:27;100840.31;;;6.53
63158;BMP280;49381;49.338;8.794;2023-02-01T04:12:27;100827.13;;;6.61
63158;BMP280;49381;49.338;8.794;2023-02-01T04:14:39;100829.72;;;6.64
63158;BMP280;49381;49.338;8.794;2023-02-01T04:16:39;100831.03;;;6.52
63158;BMP280;49381;49.338;8.794;2023-02-01T04:18:40;100826.31;;;6.62
63158;BMP280;49381;49.338;8.794;2023-02-01T04:20:42;100822.09;;;6.61
63158;BMP280;49381;49.338;8.794;2023-02-01T04:22:43;100813.63;;;6.59
63158;BMP280;49381;49.338;8.794;2023-02-01T04:24:45;100809.56;;;6.64
63158;BMP280;49381;49.338;8.794;2023-02-01T04:26:46;100817.31;;;6.70
63158;BMP280;49381;49.338;8.794;2023-02-01T04:28:46;100799.78;;;6.73
63158;BMP280;49381;49.338;8.794;2023-02-01T04:30:51;100814.72;;;6.67
63158;BMP280;49381;49.338;8.794;2023-02-01T04:32:52;100802.25;;;6.72
63158;BMP280;49381;49.338;8.794;2023-02-01T04:34:52;100805.69;;;6.75
63158;BMP280;49381;49.338;8.794;2023-02-01T04:37:00;100810.72;;;6.75
63158;BMP280;49381;49.338;8.794;2023-02-01T04:39:02;100810.28;;;6.60
63158;BMP280;49381;49.338;8.794;2023-02-01T04:41:03;100794.50;;;6.66
63158;BMP280;49381;49.338;8.794;2023-02-01T04:43:04;100798.78;;;6.68
63158;BMP280;49381;49.338;8.794;2023-02-01T04:45:06;100807.59;;;6.54
63158;BMP280;49381;49.338;8.794;2023-02-01T04:47:08;100813.56;;;6.56
63158;BMP280;49381;49.338;8.794;2023-02-01T04:49:11;100821.97;;;6.57
63158;BMP280;49381;49.338;8.794;2023-02-01T04:51:12;100821.22;;;6.61
63158;BMP280;49381;49.338;8.794;2023-02-01T04:53:19;100821.97;;;6.31
63158;BMP280;49381;49.338;8.794;2023-02-01T04:55:19;100819.91;;;6.46
63158;BMP280;49381;49.338;8.794;2023-02-01T04:57:20;100810.22;;;6.57
63158;BMP280;49381;49.338;8.794;2023-02-01T04:59:20;100821.97;;;6.57
63158;BMP280;49381;49.338;8.794;2023-02-01T05:01:23;100822.84;;;6.59
63158;BMP280;49381;49.338;8.794;2023-02-01T05:03:25;100814.63;;;6.64
63158;BMP280;49381;49.338;8.794;2023-02-01T05:05:33;100814.53;;;6.61
63158;BMP280;49381;49.338;8.794;2023-02-01T05:07:33;100815.16;;;6.54
63158;BMP280;49381;49.338;8.794;2023-02-01T05:09:34;100812.09;;;6.64
63158;BMP280;49381;49.338;8.794;2023-02-01T05:11:37;100805.94;;;6.55
63158;BMP280;49381;49.338;8.794;2023-02-01T05:13:37;100801.84;;;6.58
63158;BMP280;49381;49.338;8.794;2023-02-01T05:15:37;100804.34;;;6.57
63158;BMP280;49381;49.338;8.794;2023-02-01T05:17:38;100811.22;;;6.62
63158;BMP280;49381;49.338;8.794;2023-02-01T05:19:40;100811.75;;;6.52
63158;BMP280;49381;49.338;8.794;2023-02-01T05:21:41;100817.38;;;6.44
63158;BMP280;49381;49.338;8.794;2023-02-01T05:23:41;100810.84;;;6.51
63158;BMP280;49381;49.338;8.794;2023-02-01T05:25:41;100822.00;;;6.58
63158;BMP280;49381;49.338;8.794;2023-02-01T05:27:45;100825.59;;;6.66
63158;BMP280;49381;49.338;8.794;2023-02-01T05:29:45;100828.00;;;6.62
63158;BMP280;49381;49.338;8.794;2023-02-01T05:31:46;100815.44;;;6.63
63158;BMP280;49381;49.338;8.794;2023-02-01T05:33:47;100829.81;;;6.40
63158;BMP280;49381;49.338;8.794;2023-02-01T05:35:48;100825.16;;;6.26
63158;BMP280;49381;49.338;8.794;2023-02-01T05:37:49;100816.63;;;6.47
63158;BMP280;49381;49.338;8.794;2023-02-01T05:39:50;100814.84;;;6.44
63158;BMP280;49381;49.338;8.794;2023-02-01T05:41:50;100825.03;;;6.47
63158;BMP280;49381;49.338;8.794;2023-02-01T05:43:53;100816.50;;;6.44
63158;BMP280;49381;49.338;8.794;2023-02-01T05:45:53;100822.88;;;6.33
63158;BMP280;49381;49.338;8.794;2023-02-01T05:47:55;100829.75;;;6.37
63158;BMP280;49381;49.338;8.794;2023-02-01T05:49:56;100821.25;;;6.35
63158;BMP280;49381;49.338;8.794;2023-02-01T05:51:58;100812.47;;;6.49
63158;BMP280;49381;49.338;8.794;2023-02-01T05:54:00;100791.19;;;6.39
63158;BMP280;49381;49.338;8.794;2023-02-01T05:56:01;100805.97;;;6.29
63158;BMP280;49381;49.338;8.794;2023-02-01T05:58:02;100813.50;;;6.27
63158;BMP280;49381;49.338;8.794;2023-02-01T06:00:03;100811.13;;;6.32
63158;BMP280;49381;49.338;8.794;2023-02-01T06:02:04;100810.63;;;6.43
63158;BMP280;49381;49.338;8.794;2023-02-01T06:04:06;100796.53;;;6.50
63158;BMP280;49381;49.338;8.794;2023-02-01T06:06:06;100805.34;;;6.36
63158;BMP280;49381;49.338;8.794;2023-02-01T06:08:10;100798.25;;;6.51
63158;BMP280;49381;49.338;8.794;2023-02-01T06:10:14;100788.00;;;6.45
63158;BMP280;49381;49.338;8.794;2023-02-01T06:12:14;100796.75;;;6.29
63158;BMP280;49381;49.338;8.794;2023-02-01T06:14:15;100801.81;;;6.03
63158;BMP280;49381;49.338;8.794;2023-02-01T06:16:15;100798.94;;;6.19
63158;BMP280;49381;49.338;8.794;2023-02-01T06:18:17;100811.84;;;6.28
63158;BMP280;49381;49.338;8.794;2023-02-01T06:20:21;100804.63;;;6.40
63158;BMP280;49381;49.338;8.794;2023-02-01T06:22:25;100812.41;;;6.20
63158;BMP280;49381;49.338;8.794;2023-02-01T06:24:27;100807.97;;;6.39
63158;BMP280;49381;49.338;8.794;2023-02-01T06:26:29;100815.22;;;6.30
63158;BMP280;49381;49.338;8.794;2023-02-01T06:28:32;100814.81;;;6.43
63158;BMP280;49381;49.338;8.794;2023-02-01T06:30:32;100832.13;;;6.32
63158;BMP280;49381;49.338;8.794;2023-02-01T06:32:33;100830.25;;;6.27
63158;BMP280;49381;49.338;8.794;2023-02-01T06:34:39;100831.25;;;6.32
63158;BMP280;49381;49.338;8.794;2023-02-01T06:36:39;100822.50;;;6.21
63158;BMP280;49381;49.338;8.794;2023-02-01T06:38:45;100829.44;;;6.28
63158;BMP280;49381;49.338;8.794;2023-02-01T06:40:52;100827.78;;;6.28
63158;BMP280;49381;49.338;8.794;2023-02-01T06:42:56;100816.16;;;6.32
63158;BMP280;49381;49.338;8.794;2023-02-01T06:44:59;100818.03;;;6.39
63158;BMP280;49381;49.338;8.794;2023-02-01T06:47:04;100820.19;;;6.27
63158;BMP280;49381;49.338;8.794;2023-02-01T06:49:07;100823.06;;;6.39
63158;BMP280;49381;49.338;8.794;2023-02-01T06:51:26;100829.88;;;6.41
63158;BMP280;49381;49.338;8.794;2023-02-01T06:53:29;100836.66;;;6.44
63158;BMP280;49381;49.338;8.794;2023-02-01T06:55:38;100841.41;;;6.35
63158;BMP280;49381;49.338;8.794;2023-02-01T06:57:47;100841.88;;;6.24
63158;BMP280;49381;49.338;8.794;2023-02-01T06:59:50;100846.50;;;6.36
63158;BMP280;49381;49.338;8.794;2023-02-01T07:01:53;100838.19;;;6.39
63158;BMP280;49381;49.338;8.794;2023-02-01T07:03:56;100839.75;;;6.35
63158;BMP280;49381;49.338;8.794;2023-02-01T07:05:57;100844.09;;;6.41
63158;BMP280;49381;49.338;8.794;2023-02-01T07:07:59;100844.06;;;6.39
63158;BMP280;49381;49.338;8.794;2023-02-01T07:10:05;100835.69;;;6.40
63158;BMP280;49381;49.338;8.794;2023-02-01T07:12:09;100845.84;;;6.42
63158;BMP280;49381;49.338;8.794;2023-02-01T07:14:14;100854.28;;;6.44
63158;BMP280;49381;49.338;8.794;2023-02-01T07:16:16;100843.72;;;6.27
63158;BMP280;49381;49.338;8.794;2023-02-01T07:18:17;100842.22;;;6.34
63158;BMP280;49381;49.338;8.794;2023-02-01T07:20:21;100838.75;;;6.30
63158;BMP280;49381;49.338;8.794;2023-02-01T07:22:24;100845.81;;;6.16
63158;BMP280;49381;49.338;8.794;2023-02-01T07:24:25;100837.72;;;6.24
63158;BMP280;49381;49.338;8.794;2023-02-01T07:26:31;100835.34;;;6.28
63158;BMP280;49381;49.338;8.794;2023-02-01T07:28:33;100833.72;;;6.30
63158;BMP280;49381;49.338;8.794;2023-02-01T07:30:37;100844.88;;;6.38
63158;BMP280;49381;49.338;8.794;2023-02-01T07:32:41;100844.16;;;6.42
63158;BMP280;49381;49.338;8.794;2023-02-01T07:34:44;100836.53;;;6.41
63158;BMP280;49381;49.338;8.794;2023-02-01T07:36:44;100831.78;;;6.50
63158;BMP280;49381;49.338;8.794;2023-02-01T07:38:45;100830.84;;;6.46
63158;BMP280;49381;49.338;8.794;2023-02-01T07:40:47;100828.56;;;6.53
63158;BMP280;49381;49.338;8.794;2023-02-01T07:42:50;100816.47;;;6.42
63158;BMP280;49381;49.338;8.794;2023-02-01T07:44:52;100826.41;;;6.38
63158;BMP280;49381;49.338;8.794;2023-02-01T07:47:03;100815.63;;;6.42
63158;BMP280;49381;49.338;8.794;2023-02-01T07:49:13;100812.28;;;6.43
63158;BMP280;49381;49.338;8.794;2023-02-01T07:51:27;100812.44;;;6.47
63158;BMP280;49381;49.338;8.794;2023-02-01T07:53:33;100809.59;;;6.37
63158;BMP280;49381;49.338;8.794;2023-02-01T07:55:39;100819.53;;;6.32
63158;BMP280;49381;49.338;8.794;2023-02-01T07:57:39;100808.75;;;6.36
63158;BMP280;49381;49.338;8.794;2023-02-01T07:59:42;100812.72;;;6.30
63158;BMP280;49381;49.338;8.794;2023-02-01T08:01:44;100803.50;;;6.30
63158;BMP280;49381;49.338;8.794;2023-02-01T08:03:47;100800.44;;;6.40
63158;BMP280;49381;49.338;8.794;2023-02-01T08:05:47;100818.31;;;6.48
63158;BMP280;49381;49.338;8.794;2023-02-01T08:07:48;100807.47;;;6.50
63158;BMP280;49381;49.338;8.794;2023-02-01T08:09:49;100807.97;;;6.39
63158;BMP280;49381;49.338;8.794;2023-02-01T08:11:52;100827.59;;;6.50
63158;BMP280;49381;49.338;8.794;2023-02-01T08:13:53;100834.44;;;6.54
63158;BMP280;49381;49.338;8.794;2023-02-01T08:15:57;100849.81;;;6.61
63158;BMP280;49381;49.338;8.794;2023-02-01T08:18:01;100860.59;;;6.57
63158;BMP280;49381;49.338;8.794;2023-02-01T08:20:10;100868.22;;;6.60
63158;BMP280;49381;49.338;8.794;2023-02-01T08:22:11;100868.31;;;6.63
63158;BMP280;49381;49.338;8.794;2023-02-01T08:24:11;100866.38;;;6.55
63158;BMP280;49381;49.338;8.794;2023-02-01T08:26:16;100867.34;;;6.58
63158;BMP280;49381;49.338;8.794;2023-02-01T08:28:16;100870.84;;;6.63
63158;BMP280;49381;49.338;8.794;2023-02-01T08:30:19;100865.25;;;6.72
63158;BMP280;49381;49.338;8.794;2023-02-01T08:32:22;100867.00;;;6.76
63158;BMP280;49381;49.338;8.794;2023-02-01T08:34:23;100871.41;;;6.81
63158;BMP280;49381;49.338;8.794;2023-02-01T08:36:29;100861.25;;;6.79
63158;BMP280;49381;49.338;8.794;2023-02-01T08:38:34;100864.78;;;6.86
63158;BMP280;49381;49.338;8.794;2023-02-01T08:40:36;100875.78;;;6.88
63158;BMP280;49381;49.338;8.794;2023-02-01T08:42:36;100863.72;;;6.77
63158;BMP280;49381;49.338;8.794;2023-02-01T08:44:37;100878.53;;;6.95
63158;BMP280;49381;49.338;8.794;2023-02-01T08:46:37;100882.72;;;6.95
63158;BMP280;49381;49.338;8.794;2023-02-01T08:48:38;100882.50;;;6.87
63158;BMP280;49381;49.338;8.794;2023-02-01T08:50:42;100879.75;;;6.80
63158;BMP280;49381;49.338;8.794;2023-02-01T08:52:49;100864.25;;;6.96
63158;BMP280;49381;49.338;8.794;2023-02-01T08:54:51;100862.50;;;6.93
63158;BMP280;49381;49.338;8.794;2023-02-01T08:56:52;100873.84;;;6.79
63158;BMP280;49381;49.338;8.794;2023-02-01T08:58:52;100865.03;;;6.93
63158;BMP280;49381;49.338;8.794;2023-02-01T09:01:01;100861.50;;;6.87
63158;BMP280;49381;49.338;8.794;2023-02-01T09:03:02;100864.50;;;7.04
63158;BMP280;49381;49.338;8.794;2023-02-01T09:05:07;100866.78;;;6.96
63158;BMP280;49381;49.338;8.794;2023-02-01T09:07:07;100868.13;;;7.12
63158;BMP280;49381;49.338;8.794;2023-02-01T09:09:09;100872.34;;;6.86
63158;BMP280;49381;49.338;8.794;2023-02-01T09:11:17;100880.28;;;6.98
63158;BMP280;49381;49.338;8.794;2023-02-01T09:13:18;100875.41;;;7.03
63158;BMP280;49381;49.338;8.794;2023-02-01T09:15:34;100880.47;;;7.03
63158;BMP280;49381;49.338;8.794;2023-02-01T09:17:35;100877.84;;;7.01
63158;BMP280;49381;49.338;8.794;2023-02-01T09:19:39;100877.63;;;6.93
63158;BMP280;49381;49.338;8.794;2023-02-01T09:21:43;100881.47;;;7.10
63158;BMP280;49381;49.338;8.794;2023-02-01T09:23:51;100888.13;;;7.06
63158;BMP280;49381;49.338;8.794;2023-02-01T09:25:58;100889.81;;;7.07
63158;BMP280;49381;49.338;8.794;2023-02-01T09:28:01;100888.34;;;7.15
63158;BMP280;49381;49.338;8.794;2023-02-01T09:30:03;100885.16;;;7.21
63158;BMP280;49381;49.338;8.794;2023-02-01T09:32:04;100885.28;;;7.25
63158;BMP280;49381;49.338;8.794;2023-02-01T09:34:08;100895.44;;;7.27
63158;BMP280;49381;49.338;8.794;2023-02-01T09:36:09;100904.00;;;7.33
63158;BMP280;49381;49.338;8.794;2023-02-01T09:38:11;100900.59;;;7.31
63158;BMP280;49381;49.338;8.794;2023-02-01T09:40:14;100905.09;;;7.12
63158;BMP280;49381;49.338;8.794;2023-02-01T09:42:30;100901.06;;;7.18
63158;BMP280;49381;49.338;8.794;2023-02-01T09:45:07;100907.25;;;7.29
63158;BMP280;49381;49.338;8.794;2023-02-01T09:47:15;100903.91;;;7.30
63158;BMP280;49381;49.338;8.794;2023-02-01T09:49:34;100919.31;;;7.39
63158;BMP280;49381;49.338;8.794;2023-02-01T09:51:38;100912.94;;;7.22
63158;BMP280;49381;49.338;8.794;2023-02-01T09:53:42;100913.16;;;7.29
63158;BMP280;49381;49.338;8.794;2023-02-01T09:56:02;100924.63;;;7.20
63158;BMP280;49381;49.338;8.794;2023-02-01T09:58:12;100917.38;;;7.30
63158;BMP280;49381;49.338;8.794;2023-02-01T10:00:19;100927.03;;;7.45
63158;BMP280;49381;49.338;8.794;2023-02-01T10:02:26;100930.41;;;7.45
63158;BMP280;49381;49.338;8.794;2023-02-01T10:04:29;100944.06;;;7.52
63158;BMP280;49381;49.338;8.794;2023-02-01T10:06:41;100950.78;;;7.51
63158;BMP280;49381;49.338;8.794;2023-02-01T10:09:11;100950.88;;;7.55
63158;BMP280;49381;49.338;8.794;2023-02-01T10:11:23;100958.69;;;7.64
63158;BMP280;49381;49.338;8.794;2023-02-01T10:13:43;100960.50;;;7.68
63158;BMP280;49381;49.338;8.794;2023-02-01T10:15:55;100966.09;;;7.58
63158;BMP280;49381;49.338;8.794;2023-02-01T10:20:29;100963.03;;;7.39
63158;BMP280;49381;49.338;8.794;2023-02-01T10:22:40;100965.00;;;7.49
63158;BMP280;49381;49.338;8.794;2023-02-01T10:24:48;100970.31;;;7.58
63158;BMP280;49381;49.338;8.794;2023-02-01T10:26:59;100967.06;;;7.62
63158;BMP280;49381;49.338;8.794;2023-02-01T10:29:18;100971.16;;;7.58
63158;BMP280;49381;49.338;8.794;2023-02-01T10:31:24;100970.09;;;7.51
63158;BMP280;49381;49.338;8.794;2023-02-01T10:33:34;100974.81;;;7.69
63158;BMP280;49381;49.338;8.794;2023-02-01T10:35:53;100969.84;;;7.71
63158;BMP280;49381;49.338;8.794;2023-02-01T10:37:58;100974.78;;;7.68
63158;BMP280;49381;49.338;8.794;2023-02-01T10:40:15;100972.38;;;7.71
63158;BMP280;49381;49.338;8.794;2023-02-01T10:42:17;100972.16;;;7.65
63158;BMP280;49381;49.338;8.794;2023-02-01T10:44:25;100962.88;;;7.62
63158;BMP280;49381;49.338;8.794;2023-02-01T10:46:36;100963.19;;;7.74
63158;BMP280;49381;49.338;8.794;2023-02-01T10:48:37;100958.13;;;7.74
63158;BMP280;49381;49.338;8.794;2023-02-01T10:50:42;100954.03;;;7.77
63158;BMP280;49381;49.338;8.794;2023-02-01T10:53:21;100951.91;;;7.62
63158;BMP280;49381;49.338;8.794;2023-02-01T10:55:46;100941.38;;;7.76
63158;BMP280;49381;49.338;8.794;2023-02-01T10:58:07;100939.38;;;7.65
63158;BMP280;49381;49.338;8.794;2023-02-01T11:00:25;100948.03;;;7.74
63158;BMP280;49381;49.338;8.794;2023-02-01T11:02:43;100949.00;;;7.77
63158;BMP280;49381;49.338;8.794;2023-02-01T11:04:45;100940.63;;;7.80
63158;BMP280;49381;49.338;8.794;2023-02-01T11:06:51;100946.09;;;7.64
63158;BMP280;49381;49.338;8.794;2023-02-01T11:08:57;100936.00;;;7.64
63158;BMP280;49381;49.338;8.794;2023-02-01T11:11:02;100935.56;;;7.50
63158;BMP280;49381;49.338;8.794;2023-02-01T11:13:11;100931.50;;;7.54
63158;BMP280;49381;49.338;8.794;2023-02-01T11:15:18;100929.13;;;7.59
63158;BMP280;49381;49.338;8.794;2023-02-01T11:17:34;100926.28;;;7.77
63158;BMP280;49381;49.338;8.794;2023-02-01T11:19:34;100910.75;;;7.64
63158;BMP280;49381;49.338;8.794;2023-02-01T11:21:37;100906.81;;;7.74
63158;BMP280;49381;49.338;8.794;2023-02-01T11:23:43;100897.31;;;7.65
63158;BMP280;49381;49.338;8.794;2023-02-01T11:26:10;100898.13;;;7.63
63158;BMP280;49381;49.338;8.794;2023-02-01T11:28:13;100887.63;;;7.80
63158;BMP280;49381;49.338;8.794;2023-02-01T11:30:16;100890.38;;;7.87
63158;BMP280;49381;49.338;8.794;2023-02-01T11:32:25;100882.81;;;7.89
63158;BMP280;49381;49.338;8.794;2023-02-01T11:34:33;100886.25;;;7.91
63158;BMP280;49381;49.338;8.794;2023-02-01T11:36:39;100887.13;;;7.93
63158;BMP280;49381;49.338;8.794;2023-02-01T11:38:46;100885.50;;;7.95
63158;BMP280;49381;49.338;8.794;2023-02-01T11:40:52;100885.28;;;7.86
63158;BMP280;49381;49.338;8.794;2023-02-01T11:42:56;100892.91;;;7.89
63158;BMP280;49381;49.338;8.794;2023-02-01T11:45:24;100897.50;;;8.03
63158;BMP280;49381;49.338;8.794;2023-02-01T11:47:31;100897.06;;;7.85
63158;BMP280;49381;49.338;8.794;2023-02-01T11:49:41;100890.47;;;7.92
63158;BMP280;49381;49.338;8.794;2023-02-01T11:52:05;100898.03;;;7.60
63158;BMP280;49381;49.338;8.794;2023-02-01T11:54:20;100892.66;;;7.78
63158;BMP280;49381;49.338;8.794;2023-02-01T11:56:31;100889.56;;;7.90
63158;BMP280;49381;49.338;8.794;2023-02-01T11:58:44;100885.63;;;7.99
63158;BMP280;49381;49.338;8.794;2023-02-01T12:00:59;100884.09;;;8.04
63158;BMP280;49381;49.338;8.794;2023-02-01T12:05:47;100892.22;;;7.62
63158;BMP280;49381;49.338;8.794;2023-02-01T12:08:07;100889.44;;;7.84
63158;BMP280;49381;49.338;8.794;2023-02-01T12:10:23;100885.22;;;7.84